createdAt,value
2023-05-21T00:00:27.945Z,12.98
2023-05-21T00:03:39.194Z,12.27
2023-05-21T00:06:39.181Z,11.35
2023-05-21T00:09:08.394Z,9.32
2023-05-21T00:11:56.300Z,10.43
2023-05-21T00:15:29.188Z,9.60
2023-05-21T00:17:54.150Z,8.30
2023-05-21T00:20:43.126Z,9.40
2023-05-21T00:23:18.843Z,9.10
2023-05-21T00:25:48.308Z,10.68
2023-05-21T00:28:19.178Z,8.52
2023-05-21T00:30:49.968Z,10.82
2023-05-21T00:33:18.238Z,10.15
2023-05-21T00:35:54.818Z,11.15
2023-05-21T00:38:38.460Z,7.93
2023-05-21T00:41:11.636Z,9.48
2023-05-21T00:43:57.766Z,8.60
2023-05-21T00:46:30.371Z,8.15
2023-05-21T00:49:10.221Z,9.40
2023-05-21T00:51:38.866Z,9.10
2023-05-21T00:54:28.836Z,9.27
2023-05-21T00:57:01.121Z,9.45
2023-05-21T00:59:35.818Z,8.77
2023-05-21T01:26:21.342Z,8.57
2023-05-21T01:28:54.847Z,8.05
2023-05-21T01:32:02.843Z,8.45
2023-05-21T01:35:10.716Z,8.20
2023-05-21T01:38:00.844Z,10.70
2023-05-21T01:41:27.841Z,9.32
2023-05-21T01:44:01.402Z,8.23
2023-05-21T01:46:34.035Z,8.48
2023-05-21T01:49:03.573Z,7.07
2023-05-21T01:51:31.848Z,9.68
2023-05-21T01:54:00.120Z,8.05
2023-05-21T01:56:28.768Z,7.30
2023-05-21T01:59:03.611Z,10.75
2023-05-21T02:01:32.457Z,6.78
2023-05-21T02:04:02.032Z,8.77
2023-05-21T02:06:32.195Z,9.15
2023-05-21T02:09:05.445Z,6.97
2023-05-21T02:12:07.113Z,8.93
2023-05-21T02:14:43.095Z,6.88
2023-05-21T02:17:11.645Z,8.10
2023-05-21T02:19:44.729Z,6.90
2023-05-21T02:22:14.032Z,7.50
2023-05-21T02:24:46.436Z,7.28
2023-05-21T02:30:37.884Z,12.70
2023-05-21T02:33:09.897Z,8.38
2023-05-21T02:35:39.400Z,5.55
2023-05-21T02:38:09.729Z,7.07
2023-05-21T02:40:42.123Z,10.38
2023-05-21T02:43:15.412Z,7.93
2023-05-21T02:45:45.936Z,7.35
2023-05-21T02:48:14.331Z,7.05
2023-05-21T02:50:44.198Z,6.80
2023-05-21T02:53:13.740Z,7.65
2023-05-21T02:55:42.412Z,8.30
2023-05-21T02:58:25.016Z,8.48
2023-05-21T03:01:04.793Z,6.97
2023-05-21T03:03:33.923Z,6.78
2023-05-21T03:06:04.588Z,5.00
2023-05-21T03:08:33.417Z,9.05
2023-05-21T03:11:02.988Z,7.07
2023-05-21T03:13:34.784Z,6.80
2023-05-21T03:16:13.885Z,9.15
2023-05-21T03:18:41.313Z,6.70
2023-05-21T03:21:08.347Z,9.25
2023-05-21T03:23:35.283Z,7.50
2023-05-21T03:26:02.462Z,5.90
2023-05-21T03:28:29.549Z,7.50
2023-05-21T03:30:57.052Z,10.20
2023-05-21T03:33:42.745Z,6.90
2023-05-21T03:36:23.612Z,7.28
2023-05-21T03:38:50.662Z,7.32
2023-05-21T03:41:18.571Z,7.07
2023-05-21T03:43:50.218Z,7.22
2023-05-21T03:46:18.347Z,6.65
2023-05-21T03:49:05.264Z,7.03
2023-05-21T03:51:34.328Z,8.85
2023-05-21T03:54:01.519Z,7.95
2023-05-21T03:56:28.906Z,6.80
2023-05-21T03:58:55.968Z,8.05
2023-05-21T04:01:23.035Z,11.23
2023-05-21T04:03:52.363Z,8.98
2023-05-21T04:06:23.117Z,6.05
2023-05-21T04:08:51.364Z,9.85
2023-05-21T04:11:18.290Z,8.07
2023-05-21T04:13:46.217Z,8.93
2023-05-21T04:16:14.543Z,8.10
2023-05-21T04:18:44.859Z,9.07
2023-05-21T04:21:13.954Z,7.50
2023-05-21T04:23:41.190Z,7.90
2023-05-21T04:26:16.199Z,6.40
2023-05-21T04:28:43.249Z,7.65
2023-05-21T04:31:13.027Z,9.63
2023-05-21T04:33:42.078Z,8.07
2023-05-21T04:36:12.849Z,8.18
2023-05-21T04:38:41.888Z,7.40
2023-05-21T04:41:10.843Z,7.15
2023-05-21T04:43:38.270Z,8.27
2023-05-21T04:46:06.050Z,8.25
2023-05-21T04:48:34.122Z,7.53
2023-05-21T04:51:01.641Z,6.63
2023-05-21T04:53:29.171Z,8.52
2023-05-21T04:55:56.290Z,7.90
2023-05-21T04:58:23.300Z,8.63
2023-05-21T05:00:52.112Z,6.72
2023-05-21T05:03:19.416Z,6.85
2023-05-21T05:05:47.478Z,6.70
2023-05-21T05:08:15.998Z,6.80
2023-05-21T05:10:43.587Z,11.55
2023-05-21T05:13:10.656Z,8.75
2023-05-21T05:15:37.991Z,10.05
2023-05-21T05:18:08.554Z,8.43
2023-05-21T05:20:35.732Z,12.73
2023-05-21T05:23:02.661Z,7.78
2023-05-21T05:25:29.738Z,6.63
2023-05-21T05:27:56.776Z,7.82
2023-05-21T05:30:23.772Z,9.07
2023-05-21T05:32:51.244Z,9.18
2023-05-21T05:35:18.352Z,8.10
2023-05-21T05:37:45.373Z,6.85
2023-05-21T05:40:12.752Z,8.55
2023-05-21T05:42:40.316Z,7.55
2023-05-21T05:45:12.514Z,7.63
2023-05-21T05:47:40.569Z,8.45
2023-05-21T05:50:08.150Z,7.68
2023-05-21T05:52:35.902Z,9.55
2023-05-21T05:55:03.244Z,9.93
2023-05-21T05:57:30.444Z,6.55
2023-05-21T06:00:02.161Z,8.73
2023-05-21T06:02:39.884Z,7.07
2023-05-21T06:05:09.820Z,9.70
2023-05-21T06:07:38.620Z,8.93
2023-05-21T06:10:09.119Z,10.27
2023-05-21T06:12:36.519Z,10.90
2023-05-21T06:15:04.768Z,7.13
2023-05-21T06:17:32.066Z,9.20
2023-05-21T06:19:59.487Z,7.00
2023-05-21T06:22:27.855Z,8.27
2023-05-21T06:24:55.695Z,7.57
2023-05-21T06:27:22.689Z,7.78
2023-05-21T06:29:50.131Z,8.75
2023-05-21T06:32:17.352Z,7.10
2023-05-21T06:34:44.433Z,8.40
2023-05-21T06:37:11.488Z,10.45
2023-05-21T06:39:38.607Z,9.52
2023-05-21T06:42:06.167Z,7.72
2023-05-21T06:44:47.485Z,9.63
2023-05-21T06:47:23.769Z,10.80
2023-05-21T06:49:50.771Z,10.38
2023-05-21T06:52:17.773Z,10.27
2023-05-21T06:54:44.893Z,8.43
2023-05-21T06:57:11.935Z,10.20
2023-05-21T06:59:38.810Z,9.68
2023-05-21T07:02:06.537Z,10.15
2023-05-21T07:04:35.171Z,8.77
2023-05-21T07:07:04.985Z,11.50
2023-05-21T07:09:32.434Z,10.75
2023-05-21T07:11:59.564Z,10.10
2023-05-21T07:14:26.754Z,9.90
2023-05-21T07:16:53.932Z,10.13
2023-05-21T07:19:21.096Z,12.15
2023-05-21T07:21:49.659Z,13.18
2023-05-21T07:24:16.971Z,12.05
2023-05-21T07:26:44.058Z,12.00
2023-05-21T07:29:12.037Z,8.98
2023-05-21T07:31:39.748Z,12.48
2023-05-21T07:34:07.640Z,8.18
2023-05-21T07:36:34.720Z,9.75
2023-05-21T07:39:02.586Z,11.27
2023-05-21T07:41:30.007Z,10.15
2023-05-21T07:44:01.518Z,11.57
2023-05-21T07:46:28.801Z,11.82
2023-05-21T07:48:57.767Z,8.05
2023-05-21T07:51:26.310Z,10.02
2023-05-21T07:53:55.287Z,10.68
2023-05-21T07:56:28.815Z,12.15
2023-05-21T07:58:57.119Z,11.82
2023-05-21T08:01:28.278Z,10.10
2023-05-21T08:03:55.907Z,9.07
2023-05-21T08:06:24.414Z,14.05
2023-05-21T08:08:51.739Z,11.40
2023-05-21T08:11:18.875Z,10.07
2023-05-21T08:13:46.108Z,8.80
2023-05-21T08:16:14.187Z,10.20
2023-05-21T08:18:41.462Z,12.40
2023-05-21T08:21:08.759Z,9.23
2023-05-21T08:23:36.220Z,8.80
2023-05-21T08:26:03.915Z,12.13
2023-05-21T08:28:31.174Z,8.52
2023-05-21T08:30:59.394Z,11.80
2023-05-21T08:33:27.231Z,11.68
2023-05-21T08:35:54.704Z,10.00
2023-05-21T08:38:30.280Z,12.43
2023-05-21T08:40:59.749Z,10.23
2023-05-21T08:43:30.168Z,12.20
2023-05-21T08:46:03.358Z,11.02
2023-05-21T08:48:33.226Z,11.68
2023-05-21T08:51:01.223Z,10.70
2023-05-21T08:53:34.684Z,9.38
2023-05-21T08:56:03.847Z,10.68
2023-05-21T08:58:54.068Z,16.88
2023-05-21T09:01:26.382Z,10.70
2023-05-21T09:04:18.966Z,11.32
2023-05-21T09:06:50.424Z,12.30
2023-05-21T09:09:41.738Z,10.68
2023-05-21T09:12:08.897Z,11.30
2023-05-21T09:14:38.133Z,11.15
2023-05-21T09:17:16.001Z,10.70
2023-05-21T09:20:11.080Z,11.60
2023-05-21T09:22:44.269Z,12.43
2023-05-21T09:25:13.790Z,10.77
2023-05-21T09:27:41.264Z,13.93
2023-05-21T09:38:20.977Z,12.50
2023-05-21T09:40:54.965Z,10.77
2023-05-21T09:52:40.142Z,9.63
2023-05-21T09:55:18.502Z,11.02
2023-05-21T09:57:50.725Z,13.57
2023-05-21T10:00:43.226Z,10.40
2023-05-21T10:03:15.052Z,14.27
2023-05-21T10:05:43.683Z,11.70
2023-05-21T10:08:14.332Z,11.13
2023-05-21T10:10:44.254Z,9.70
2023-05-21T10:13:16.150Z,9.60
2023-05-21T10:15:50.115Z,12.07
2023-05-21T10:18:21.350Z,13.20
2023-05-21T10:20:49.405Z,9.23
2023-05-21T10:23:19.005Z,12.13
2023-05-21T10:25:49.550Z,11.45
2023-05-21T10:28:20.810Z,11.85
2023-05-21T10:30:48.325Z,10.93
2023-05-21T10:33:18.517Z,13.02
2023-05-21T10:35:48.349Z,12.68
2023-05-21T10:38:20.886Z,13.65
2023-05-21T10:40:49.463Z,11.77
2023-05-21T10:43:32.703Z,9.45
2023-05-21T10:46:36.849Z,10.82
2023-05-21T10:49:59.440Z,11.68
2023-05-21T10:53:11.181Z,12.63
2023-05-21T10:55:58.499Z,13.40
2023-05-21T10:58:59.374Z,11.65
2023-05-21T11:01:33.855Z,11.10
2023-05-21T11:04:01.748Z,13.30
2023-05-21T11:06:29.065Z,10.15
2023-05-21T11:08:56.222Z,14.65
2023-05-21T11:11:44.829Z,12.27
2023-05-21T11:14:39.656Z,11.93
2023-05-21T11:17:11.588Z,12.07
2023-05-21T11:19:44.090Z,12.82
2023-05-21T11:22:24.832Z,12.73
2023-05-21T11:25:00.949Z,10.15
2023-05-21T11:27:37.258Z,11.27
2023-05-21T11:30:10.418Z,13.38
2023-05-21T11:33:10.740Z,10.10
2023-05-21T11:36:01.257Z,11.27
2023-05-21T11:38:31.670Z,11.93
2023-05-21T11:41:04.016Z,12.52
2023-05-21T11:43:31.226Z,11.43
2023-05-21T11:45:59.362Z,11.52
2023-05-21T11:48:27.799Z,11.20
2023-05-21T11:50:57.522Z,11.80
2023-05-21T11:53:24.606Z,14.05
2023-05-21T11:55:57.418Z,13.55
2023-05-21T11:58:24.674Z,13.95
2023-05-21T12:00:52.090Z,10.90
2023-05-21T12:03:20.491Z,10.93
2023-05-21T12:05:51.533Z,11.43
2023-05-21T12:08:25.740Z,13.73
2023-05-21T12:11:01.742Z,12.57
2023-05-21T12:13:29.992Z,9.65
2023-05-21T12:15:56.935Z,13.43
2023-05-21T12:18:23.945Z,11.48
2023-05-21T12:20:52.493Z,16.90
2023-05-21T12:23:24.093Z,11.35
2023-05-21T12:25:53.551Z,12.95
2023-05-21T12:28:24.823Z,15.50
2023-05-21T12:30:53.587Z,12.57
2023-05-21T12:33:22.418Z,11.90
2023-05-21T12:35:52.400Z,14.40
2023-05-21T12:38:19.516Z,13.63
2023-05-21T12:40:46.615Z,13.27
2023-05-21T12:43:13.689Z,9.45
2023-05-21T12:45:41.132Z,12.65
2023-05-21T12:48:08.886Z,14.75
2023-05-21T12:50:40.988Z,16.73
2023-05-21T12:53:11.447Z,11.73
2023-05-21T12:55:38.743Z,11.55
2023-05-21T12:58:08.871Z,14.30
2023-05-21T13:00:36.852Z,13.55
2023-05-21T13:03:06.389Z,12.88
2023-05-21T13:05:34.082Z,11.55
2023-05-21T13:08:01.599Z,11.98
2023-05-21T13:10:28.602Z,13.10
2023-05-21T13:12:55.797Z,10.85
2023-05-21T13:15:22.815Z,11.10
2023-05-21T13:17:50.918Z,11.15
2023-05-21T13:20:23.797Z,14.38
2023-05-21T13:22:52.669Z,12.43
2023-05-21T13:25:28.705Z,12.80
2023-05-21T13:27:57.505Z,10.45
2023-05-21T13:30:24.599Z,13.35
2023-05-21T13:32:52.423Z,12.13
2023-05-21T13:35:19.985Z,12.10
2023-05-21T13:37:47.258Z,11.43
2023-05-21T13:40:16.111Z,12.82
2023-05-21T13:42:46.974Z,11.38
2023-05-21T13:45:18.400Z,13.80
2023-05-21T13:47:47.804Z,13.63
2023-05-21T13:50:15.963Z,11.90
2023-05-21T13:52:43.197Z,12.30
2023-05-21T13:55:10.930Z,12.82
2023-05-21T13:57:38.510Z,12.80
2023-05-21T14:00:09.120Z,12.80
2023-05-21T14:02:37.063Z,13.43
2023-05-21T14:05:04.513Z,10.60
2023-05-21T14:07:31.483Z,13.32
2023-05-21T14:09:58.844Z,12.57
2023-05-21T14:12:26.887Z,14.65
2023-05-21T14:14:54.086Z,13.50
2023-05-21T14:17:21.396Z,15.68
2023-05-21T14:19:48.561Z,12.55
2023-05-21T14:22:15.678Z,12.05
2023-05-21T14:24:42.814Z,15.55
2023-05-21T14:27:10.041Z,10.27
2023-05-21T14:29:37.128Z,11.13
2023-05-21T14:32:06.008Z,10.98
2023-05-21T14:34:33.064Z,12.98
2023-05-21T14:37:00.151Z,12.23
2023-05-21T14:39:27.119Z,12.68
2023-05-21T14:41:54.292Z,10.63
2023-05-21T14:44:21.327Z,9.98
2023-05-21T14:46:48.582Z,10.98
2023-05-21T14:49:15.771Z,11.32
2023-05-21T14:51:43.779Z,14.93
2023-05-21T14:54:11.240Z,12.88
2023-05-21T14:56:38.793Z,13.75
2023-05-21T14:59:06.906Z,17.05
2023-05-21T15:01:34.448Z,13.57
2023-05-21T15:04:03.425Z,12.50
2023-05-21T15:06:30.965Z,13.27
2023-05-21T15:08:58.141Z,12.48
2023-05-21T15:11:25.675Z,13.90
2023-05-21T15:13:52.679Z,12.93
2023-05-21T15:16:19.973Z,14.45
2023-05-21T15:18:47.251Z,11.82
2023-05-21T15:21:14.713Z,12.55
2023-05-21T15:23:41.810Z,10.77
2023-05-21T15:26:09.274Z,14.25
2023-05-21T15:28:36.515Z,14.20
2023-05-21T15:31:04.129Z,13.90
2023-05-21T15:33:31.203Z,10.80
2023-05-21T15:35:58.346Z,12.35
2023-05-21T15:38:25.730Z,11.68
2023-05-21T15:40:53.564Z,12.20
2023-05-21T15:43:20.787Z,11.10
2023-05-21T15:45:48.053Z,13.18
2023-05-21T15:48:15.111Z,11.85
2023-05-21T15:50:42.247Z,11.70
2023-05-21T15:53:11.304Z,12.98
2023-05-21T15:55:38.840Z,12.20
2023-05-21T15:58:06.205Z,13.70
2023-05-21T16:00:34.394Z,12.50
2023-05-21T16:03:01.656Z,11.95
2023-05-21T16:05:29.266Z,11.25
2023-05-21T16:07:56.242Z,11.73
2023-05-21T16:10:33.517Z,12.85
2023-05-21T16:13:53.999Z,18.77
2023-05-21T16:25:43.302Z,10.13
2023-05-21T17:14:05.030Z,12.90
2023-05-21T17:16:32.199Z,11.52
2023-05-21T17:18:59.678Z,12.82
2023-05-21T17:21:27.372Z,13.05
2023-05-21T17:23:54.684Z,14.70
2023-05-21T17:26:22.492Z,11.52
2023-05-21T17:28:49.635Z,13.60
2023-05-21T17:31:16.963Z,13.50
2023-05-21T17:33:44.112Z,12.60
2023-05-21T17:36:11.219Z,12.43
2023-05-21T17:38:38.227Z,13.80
2023-05-21T17:41:05.498Z,13.40
2023-05-21T17:43:32.559Z,14.25
2023-05-21T17:45:59.578Z,15.70
2023-05-21T17:48:26.727Z,12.80
2023-05-21T17:50:53.839Z,16.98
2023-05-21T17:53:21.063Z,13.20
2023-05-21T17:55:48.069Z,12.52
2023-05-21T17:58:15.687Z,14.70
2023-05-21T18:00:42.898Z,15.88
2023-05-21T18:03:10.024Z,15.23
2023-05-21T18:05:37.188Z,13.98
2023-05-21T18:08:04.821Z,13.77
2023-05-21T18:10:31.886Z,15.27
2023-05-21T18:12:58.899Z,13.40
2023-05-21T18:15:33.561Z,16.33
2023-05-21T18:18:12.908Z,13.25
2023-05-21T18:48:30.814Z,14.57
2023-05-21T19:04:28.770Z,16.27
2023-05-21T19:07:17.822Z,15.85
2023-05-21T19:17:35.206Z,17.23
2023-05-21T19:20:09.290Z,15.80
2023-05-21T19:33:13.180Z,14.90
2023-05-21T19:36:15.233Z,14.93
2023-05-21T19:38:52.264Z,15.52
2023-05-21T19:41:51.545Z,14.93
2023-05-21T19:44:51.901Z,15.35
2023-05-21T19:47:47.780Z,14.70
2023-05-21T19:50:51.470Z,16.80
2023-05-21T19:53:19.837Z,15.65
2023-05-21T19:55:54.780Z,14.90
2023-05-21T20:06:57.642Z,14.75
2023-05-21T20:35:41.330Z,16.92
2023-05-21T20:39:00.534Z,17.40
2023-05-21T20:46:44.224Z,16.83
2023-05-21T20:55:28.016Z,15.10
2023-05-21T21:05:28.595Z,15.50
2023-05-21T21:08:02.520Z,20.30
2023-05-21T21:10:29.579Z,15.32
2023-05-21T21:12:56.518Z,18.35
2023-05-21T21:15:23.567Z,19.83
2023-05-21T21:17:50.620Z,17.50
2023-05-21T21:20:20.359Z,19.10
2023-05-21T21:22:47.430Z,20.17
2023-05-21T21:25:14.661Z,19.48
2023-05-21T21:27:42.461Z,17.25
2023-05-21T21:30:10.228Z,17.70
2023-05-21T21:32:37.546Z,19.02
2023-05-21T21:35:05.007Z,19.48
2023-05-21T21:37:31.978Z,21.65
2023-05-21T21:39:58.926Z,20.85
2023-05-21T21:42:25.885Z,19.67
2023-05-21T21:44:52.848Z,16.73
2023-05-21T21:47:19.860Z,17.45
2023-05-21T21:49:48.186Z,17.35
2023-05-21T21:52:17.007Z,16.02
2023-05-21T21:54:44.251Z,16.42
2023-05-21T21:57:11.259Z,15.82
2023-05-21T21:59:39.508Z,15.82
2023-05-21T22:02:06.557Z,13.30
2023-05-21T22:04:33.540Z,12.55
2023-05-21T22:07:01.712Z,12.07
2023-05-21T22:09:28.877Z,13.88
2023-05-21T22:11:56.450Z,12.48
2023-05-21T22:14:23.876Z,12.85
2023-05-21T22:16:53.157Z,13.15
2023-05-21T22:19:22.034Z,15.05
2023-05-21T22:21:49.328Z,15.15
2023-05-21T22:24:30.944Z,14.63
2023-05-21T22:26:59.529Z,14.50
2023-05-21T22:29:26.605Z,15.18
2023-05-21T22:31:53.663Z,17.08
2023-05-21T22:34:20.842Z,18.33
2023-05-21T22:41:30.986Z,16.15
2023-05-21T23:39:55.224Z,15.52
2023-05-21T23:42:45.599Z,21.25
2023-05-21T23:45:40.315Z,16.90
2023-05-21T23:48:55.285Z,19.98
2023-05-21T23:56:52.271Z,19.85
